sensor_id;sensor_type;location;lat;lon;timestamp;P1;durP1;ratioP1;P2;durP2;ratioP2
30966;SDS011;17649;51.836;8.330;2023-02-28T00:02:03;4.85;;;3.72;;
30966;SDS011;17649;51.836;8.330;2023-02-28T00:05:04;10.85;;;4.63;;
30966;SDS011;17649;51.836;8.330;2023-02-28T00:08:05;8.50;;;3.92;;
30966;SDS011;17649;51.836;8.330;2023-02-28T00:11:07;13.38;;;4.28;;
30966;SDS011;17649;51.836;8.330;2023-02-28T00:14:11;8.07;;;4.18;;
30966;SDS011;17649;51.836;8.330;2023-02-28T00:17:11;5.18;;;4.22;;
30966;SDS011;17649;51.836;8.330;2023-02-28T00:20:12;6.57;;;4.20;;
30966;SDS011;17649;51.836;8.330;2023-02-28T00:23:13;6.23;;;3.70;;
30966;SDS011;17649;51.836;8.330;2023-02-28T00:26:13;7.72;;;4.25;;
30966;SDS011;17649;51.836;8.330;2023-02-28T00:29:14;9.43;;;4.18;;
30966;SDS011;17649;51.836;8.330;2023-02-28T00:32:14;6.32;;;4.03;;
30966;SDS011;17649;51.836;8.330;2023-02-28T00:35:15;5.15;;;3.67;;
30966;SDS011;17649;51.836;8.330;2023-02-28T00:38:16;5.13;;;3.60;;
30966;SDS011;17649;51.836;8.330;2023-02-28T00:41:16;8.48;;;4.15;;
30966;SDS011;17649;51.836;8.330;2023-02-28T00:44:17;6.60;;;3.97;;
30966;SDS011;17649;51.836;8.330;2023-02-28T00:47:17;6.72;;;4.40;;
30966;SDS011;17649;51.836;8.330;2023-02-28T00:50:18;5.57;;;3.45;;
30966;SDS011;17649;51.836;8.330;2023-02-28T00:53:19;5.60;;;3.05;;
30966;SDS011;17649;51.836;8.330;2023-02-28T00:56:19;5.22;;;3.90;;
30966;SDS011;17649;51.836;8.330;2023-02-28T00:59:20;5.97;;;3.72;;
30966;SDS011;17649;51.836;8.330;2023-02-28T01:02:22;34.85;;;14.98;;
30966;SDS011;17649;51.836;8.330;2023-02-28T01:05:23;10.48;;;4.93;;
30966;SDS011;17649;51.836;8.330;2023-02-28T01:08:24;6.50;;;4.43;;
30966;SDS011;17649;51.836;8.330;2023-02-28T01:11:25;9.40;;;4.82;;
30966;SDS011;17649;51.836;8.330;2023-02-28T01:14:26;7.22;;;4.80;;
30966;SDS011;17649;51.836;8.330;2023-02-28T01:17:26;10.68;;;5.25;;
30966;SDS011;17649;51.836;8.330;2023-02-28T01:20:27;11.07;;;4.60;;
30966;SDS011;17649;51.836;8.330;2023-02-28T01:23:27;6.60;;;4.05;;
30966;SDS011;17649;51.836;8.330;2023-02-28T01:26:27;7.28;;;4.63;;
30966;SDS011;17649;51.836;8.330;2023-02-28T01:29:28;10.20;;;4.63;;
30966;SDS011;17649;51.836;8.330;2023-02-28T01:32:28;6.95;;;4.45;;
30966;SDS011;17649;51.836;8.330;2023-02-28T01:35:31;9.68;;;4.95;;
30966;SDS011;17649;51.836;8.330;2023-02-28T01:38:32;7.88;;;4.78;;
30966;SDS011;17649;51.836;8.330;2023-02-28T01:41:34;12.50;;;5.10;;
30966;SDS011;17649;51.836;8.330;2023-02-28T01:48:06;7.47;;;4.88;;
30966;SDS011;17649;51.836;8.330;2023-02-28T01:51:10;6.13;;;4.63;;
30966;SDS011;17649;51.836;8.330;2023-02-28T01:54:14;5.43;;;4.28;;
30966;SDS011;17649;51.836;8.330;2023-02-28T01:57:19;8.98;;;4.63;;
30966;SDS011;17649;51.836;8.330;2023-02-28T02:00:25;6.60;;;4.63;;
30966;SDS011;17649;51.836;8.330;2023-02-28T02:03:27;7.80;;;4.47;;
30966;SDS011;17649;51.836;8.330;2023-02-28T02:06:28;10.07;;;6.07;;
30966;SDS011;17649;51.836;8.330;2023-02-28T02:09:47;9.02;;;5.53;;
30966;SDS011;17649;51.836;8.330;2023-02-28T02:12:52;7.38;;;4.10;;
30966;SDS011;17649;51.836;8.330;2023-02-28T02:15:59;10.00;;;5.80;;
30966;SDS011;17649;51.836;8.330;2023-02-28T02:25:51;10.43;;;5.87;;
30966;SDS011;17649;51.836;8.330;2023-02-28T02:29:00;7.97;;;5.30;;
30966;SDS011;17649;51.836;8.330;2023-02-28T02:42:28;12.45;;;4.65;;
30966;SDS011;17649;51.836;8.330;2023-02-28T02:45:43;6.85;;;4.40;;
30966;SDS011;17649;51.836;8.330;2023-02-28T02:48:52;14.50;;;5.35;;
30966;SDS011;17649;51.836;8.330;2023-02-28T02:51:54;4.57;;;3.60;;
30966;SDS011;17649;51.836;8.330;2023-02-28T02:54:58;8.85;;;4.57;;
30966;SDS011;17649;51.836;8.330;2023-02-28T02:58:01;19.02;;;5.30;;
30966;SDS011;17649;51.836;8.330;2023-02-28T03:01:06;10.32;;;4.63;;
30966;SDS011;17649;51.836;8.330;2023-02-28T03:04:10;8.10;;;3.60;;
30966;SDS011;17649;51.836;8.330;2023-02-28T03:07:16;6.93;;;4.30;;
30966;SDS011;17649;51.836;8.330;2023-02-28T03:10:34;12.63;;;4.78;;
30966;SDS011;17649;51.836;8.330;2023-02-28T03:17:08;8.38;;;4.20;;
30966;SDS011;17649;51.836;8.330;2023-02-28T03:23:45;15.07;;;5.28;;
30966;SDS011;17649;51.836;8.330;2023-02-28T03:27:11;10.10;;;4.30;;
30966;SDS011;17649;51.836;8.330;2023-02-28T03:30:35;7.28;;;4.68;;
30966;SDS011;17649;51.836;8.330;2023-02-28T03:33:43;10.55;;;4.55;;
30966;SDS011;17649;51.836;8.330;2023-02-28T03:36:55;9.35;;;4.57;;
30966;SDS011;17649;51.836;8.330;2023-02-28T03:40:02;9.27;;;4.68;;
30966;SDS011;17649;51.836;8.330;2023-02-28T03:43:18;8.88;;;5.45;;
30966;SDS011;17649;51.836;8.330;2023-02-28T03:46:23;9.45;;;4.75;;
30966;SDS011;17649;51.836;8.330;2023-02-28T03:49:28;12.32;;;4.82;;
30966;SDS011;17649;51.836;8.330;2023-02-28T03:52:35;8.63;;;4.90;;
30966;SDS011;17649;51.836;8.330;2023-02-28T03:55:45;11.98;;;4.93;;
30966;SDS011;17649;51.836;8.330;2023-02-28T03:59:07;9.43;;;5.07;;
30966;SDS011;17649;51.836;8.330;2023-02-28T04:02:13;10.75;;;5.22;;
30966;SDS011;17649;51.836;8.330;2023-02-28T04:05:14;11.45;;;5.13;;
30966;SDS011;17649;51.836;8.330;2023-02-28T04:08:14;15.82;;;5.50;;
30966;SDS011;17649;51.836;8.330;2023-02-28T04:11:27;6.95;;;4.30;;
30966;SDS011;17649;51.836;8.330;2023-02-28T04:14:38;15.80;;;5.30;;
30966;SDS011;17649;51.836;8.330;2023-02-28T04:17:38;15.93;;;5.57;;
30966;SDS011;17649;51.836;8.330;2023-02-28T04:20:38;10.55;;;4.65;;
30966;SDS011;17649;51.836;8.330;2023-02-28T04:23:39;11.13;;;5.00;;
30966;SDS011;17649;51.836;8.330;2023-02-28T04:26:40;10.35;;;4.57;;
30966;SDS011;17649;51.836;8.330;2023-02-28T04:29:43;14.13;;;4.65;;
30966;SDS011;17649;51.836;8.330;2023-02-28T04:32:44;7.20;;;4.20;;
30966;SDS011;17649;51.836;8.330;2023-02-28T04:35:44;12.80;;;4.55;;
30966;SDS011;17649;51.836;8.330;2023-02-28T04:38:45;8.43;;;4.18;;
30966;SDS011;17649;51.836;8.330;2023-02-28T04:41:46;10.40;;;4.78;;
30966;SDS011;17649;51.836;8.330;2023-02-28T04:44:46;8.93;;;4.10;;
30966;SDS011;17649;51.836;8.330;2023-02-28T04:47:47;7.38;;;4.82;;
30966;SDS011;17649;51.836;8.330;2023-02-28T04:50:47;6.13;;;4.22;;
30966;SDS011;17649;51.836;8.330;2023-02-28T04:53:48;7.97;;;4.65;;
30966;SDS011;17649;51.836;8.330;2023-02-28T04:56:48;9.52;;;5.22;;
30966;SDS011;17649;51.836;8.330;2023-02-28T04:59:49;7.38;;;4.55;;
30966;SDS011;17649;51.836;8.330;2023-02-28T05:02:50;12.65;;;4.70;;
30966;SDS011;17649;51.836;8.330;2023-02-28T05:05:50;6.20;;;4.57;;
30966;SDS011;17649;51.836;8.330;2023-02-28T05:08:50;6.43;;;4.47;;
30966;SDS011;17649;51.836;8.330;2023-02-28T05:11:51;7.63;;;4.75;;
30966;SDS011;17649;51.836;8.330;2023-02-28T05:14:52;11.02;;;3.80;;
30966;SDS011;17649;51.836;8.330;2023-02-28T05:17:52;11.23;;;4.47;;
30966;SDS011;17649;51.836;8.330;2023-02-28T05:20:53;7.75;;;3.65;;
30966;SDS011;17649;51.836;8.330;2023-02-28T05:23:54;4.82;;;3.80;;
30966;SDS011;17649;51.836;8.330;2023-02-28T05:26:55;8.13;;;4.10;;
30966;SDS011;17649;51.836;8.330;2023-02-28T05:29:56;60.28;;;23.23;;
30966;SDS011;17649;51.836;8.330;2023-02-28T05:32:57;6.00;;;3.40;;
30966;SDS011;17649;51.836;8.330;2023-02-28T05:35:57;8.50;;;5.25;;
30966;SDS011;17649;51.836;8.330;2023-02-28T05:38:57;14.88;;;4.18;;
30966;SDS011;17649;51.836;8.330;2023-02-28T05:41:58;9.55;;;5.22;;
30966;SDS011;17649;51.836;8.330;2023-02-28T05:44:58;8.25;;;4.57;;
30966;SDS011;17649;51.836;8.330;2023-02-28T05:47:59;9.23;;;4.97;;
30966;SDS011;17649;51.836;8.330;2023-02-28T05:50:59;11.00;;;5.32;;
30966;SDS011;17649;51.836;8.330;2023-02-28T05:54:00;10.38;;;5.35;;
30966;SDS011;17649;51.836;8.330;2023-02-28T05:57:01;8.70;;;4.47;;
30966;SDS011;17649;51.836;8.330;2023-02-28T06:00:01;7.70;;;3.88;;
30966;SDS011;17649;51.836;8.330;2023-02-28T06:03:03;11.73;;;5.15;;
30966;SDS011;17649;51.836;8.330;2023-02-28T06:06:03;13.55;;;5.25;;
30966;SDS011;17649;51.836;8.330;2023-02-28T06:09:04;6.18;;;4.53;;
30966;SDS011;17649;51.836;8.330;2023-02-28T06:12:06;17.00;;;4.77;;
30966;SDS011;17649;51.836;8.330;2023-02-28T06:15:07;8.52;;;5.07;;
30966;SDS011;17649;51.836;8.330;2023-02-28T06:18:12;11.52;;;5.43;;
30966;SDS011;17649;51.836;8.330;2023-02-28T06:21:12;5.70;;;3.83;;
30966;SDS011;17649;51.836;8.330;2023-02-28T06:24:13;11.90;;;5.95;;
30966;SDS011;17649;51.836;8.330;2023-02-28T06:27:13;10.90;;;5.03;;
30966;SDS011;17649;51.836;8.330;2023-02-28T06:30:13;37.00;;;15.13;;
30966;SDS011;17649;51.836;8.330;2023-02-28T06:33:14;10.52;;;6.25;;
30966;SDS011;17649;51.836;8.330;2023-02-28T06:36:15;12.57;;;5.97;;
30966;SDS011;17649;51.836;8.330;2023-02-28T06:39:16;10.77;;;4.68;;
30966;SDS011;17649;51.836;8.330;2023-02-28T06:42:19;8.80;;;4.55;;
30966;SDS011;17649;51.836;8.330;2023-02-28T06:45:20;9.38;;;5.80;;
30966;SDS011;17649;51.836;8.330;2023-02-28T06:48:20;11.88;;;6.18;;
30966;SDS011;17649;51.836;8.330;2023-02-28T06:51:21;11.30;;;6.50;;
30966;SDS011;17649;51.836;8.330;2023-02-28T06:54:32;10.70;;;6.20;;
30966;SDS011;17649;51.836;8.330;2023-02-28T06:57:33;12.23;;;7.32;;
30966;SDS011;17649;51.836;8.330;2023-02-28T07:00:35;13.15;;;6.57;;
30966;SDS011;17649;51.836;8.330;2023-02-28T07:03:35;17.42;;;7.95;;
30966;SDS011;17649;51.836;8.330;2023-02-28T07:06:36;12.50;;;6.47;;
30966;SDS011;17649;51.836;8.330;2023-02-28T07:09:37;14.82;;;6.75;;
30966;SDS011;17649;51.836;8.330;2023-02-28T07:12:37;17.25;;;8.52;;
30966;SDS011;17649;51.836;8.330;2023-02-28T07:15:38;21.40;;;10.35;;
30966;SDS011;17649;51.836;8.330;2023-02-28T07:18:38;14.68;;;8.13;;
30966;SDS011;17649;51.836;8.330;2023-02-28T07:21:39;18.55;;;8.20;;
30966;SDS011;17649;51.836;8.330;2023-02-28T07:24:39;17.40;;;8.95;;
30966;SDS011;17649;51.836;8.330;2023-02-28T07:27:40;28.02;;;14.93;;
30966;SDS011;17649;51.836;8.330;2023-02-28T07:30:40;22.00;;;12.50;;
30966;SDS011;17649;51.836;8.330;2023-02-28T07:33:41;18.52;;;8.77;;
30966;SDS011;17649;51.836;8.330;2023-02-28T07:36:42;7.55;;;5.53;;
30966;SDS011;17649;51.836;8.330;2023-02-28T07:39:42;20.55;;;8.00;;
30966;SDS011;17649;51.836;8.330;2023-02-28T07:42:46;12.30;;;7.32;;
30966;SDS011;17649;51.836;8.330;2023-02-28T07:45:49;13.80;;;7.57;;
30966;SDS011;17649;51.836;8.330;2023-02-28T07:48:50;16.13;;;6.93;;
30966;SDS011;17649;51.836;8.330;2023-02-28T07:51:50;13.55;;;8.18;;
30966;SDS011;17649;51.836;8.330;2023-02-28T07:54:51;8.77;;;6.15;;
30966;SDS011;17649;51.836;8.330;2023-02-28T07:57:51;11.30;;;7.00;;
30966;SDS011;17649;51.836;8.330;2023-02-28T08:00:51;8.75;;;5.30;;
30966;SDS011;17649;51.836;8.330;2023-02-28T08:03:52;9.07;;;5.18;;
30966;SDS011;17649;51.836;8.330;2023-02-28T08:09:56;7.30;;;5.10;;
30966;SDS011;17649;51.836;8.330;2023-02-28T08:12:56;6.53;;;4.20;;
30966;SDS011;17649;51.836;8.330;2023-02-28T08:15:56;12.15;;;4.28;;
30966;SDS011;17649;51.836;8.330;2023-02-28T08:18:58;7.75;;;4.05;;
30966;SDS011;17649;51.836;8.330;2023-02-28T08:21:58;6.53;;;3.90;;
30966;SDS011;17649;51.836;8.330;2023-02-28T08:24:59;10.02;;;4.72;;
30966;SDS011;17649;51.836;8.330;2023-02-28T08:27:59;4.35;;;3.95;;
30966;SDS011;17649;51.836;8.330;2023-02-28T08:30:59;7.45;;;4.47;;
30966;SDS011;17649;51.836;8.330;2023-02-28T08:34:00;11.75;;;4.40;;
30966;SDS011;17649;51.836;8.330;2023-02-28T08:37:00;4.55;;;3.47;;
30966;SDS011;17649;51.836;8.330;2023-02-28T08:40:00;7.85;;;3.45;;
30966;SDS011;17649;51.836;8.330;2023-02-28T08:43:01;5.78;;;3.25;;
30966;SDS011;17649;51.836;8.330;2023-02-28T08:46:01;7.00;;;3.95;;
30966;SDS011;17649;51.836;8.330;2023-02-28T08:49:03;8.55;;;4.65;;
30966;SDS011;17649;51.836;8.330;2023-02-28T08:52:03;5.78;;;3.13;;
30966;SDS011;17649;51.836;8.330;2023-02-28T08:55:04;4.90;;;3.35;;
30966;SDS011;17649;51.836;8.330;2023-02-28T08:58:05;5.47;;;3.53;;
30966;SDS011;17649;51.836;8.330;2023-02-28T09:01:12;3.10;;;2.78;;
30966;SDS011;17649;51.836;8.330;2023-02-28T09:04:14;5.38;;;3.40;;
30966;SDS011;17649;51.836;8.330;2023-02-28T09:07:15;7.60;;;3.90;;
30966;SDS011;17649;51.836;8.330;2023-02-28T09:10:15;6.15;;;3.13;;
30966;SDS011;17649;51.836;8.330;2023-02-28T09:13:16;7.25;;;4.00;;
30966;SDS011;17649;51.836;8.330;2023-02-28T09:16:17;6.88;;;3.65;;
30966;SDS011;17649;51.836;8.330;2023-02-28T09:19:19;7.88;;;4.15;;
30966;SDS011;17649;51.836;8.330;2023-02-28T09:22:19;5.57;;;4.05;;
30966;SDS011;17649;51.836;8.330;2023-02-28T09:25:20;10.77;;;4.10;;
30966;SDS011;17649;51.836;8.330;2023-02-28T09:28:20;8.95;;;3.83;;
30966;SDS011;17649;51.836;8.330;2023-02-28T09:31:22;4.60;;;3.67;;
30966;SDS011;17649;51.836;8.330;2023-02-28T09:34:25;8.85;;;4.18;;
30966;SDS011;17649;51.836;8.330;2023-02-28T09:37:26;10.73;;;3.13;;
30966;SDS011;17649;51.836;8.330;2023-02-28T09:40:29;7.28;;;3.38;;
30966;SDS011;17649;51.836;8.330;2023-02-28T09:43:34;5.10;;;2.97;;
30966;SDS011;17649;51.836;8.330;2023-02-28T09:46:39;4.80;;;2.90;;
30966;SDS011;17649;51.836;8.330;2023-02-28T09:49:44;6.32;;;3.10;;
30966;SDS011;17649;51.836;8.330;2023-02-28T09:52:47;4.60;;;3.55;;
30966;SDS011;17649;51.836;8.330;2023-02-28T09:55:51;8.80;;;4.43;;
30966;SDS011;17649;51.836;8.330;2023-02-28T10:02:41;17.10;;;9.77;;
30966;SDS011;17649;51.836;8.330;2023-02-28T10:06:14;23.83;;;11.80;;
30966;SDS011;17649;51.836;8.330;2023-02-28T10:09:19;580.05;;;155.73;;
30966;SDS011;17649;51.836;8.330;2023-02-28T10:12:24;779.67;;;223.93;;
30966;SDS011;17649;51.836;8.330;2023-02-28T10:15:26;606.58;;;170.73;;
30966;SDS011;17649;51.836;8.330;2023-02-28T10:18:41;818.60;;;201.77;;
30966;SDS011;17649;51.836;8.330;2023-02-28T10:21:47;801.50;;;195.23;;
30966;SDS011;17649;51.836;8.330;2023-02-28T10:25:17;755.20;;;173.93;;
30966;SDS011;17649;51.836;8.330;2023-02-28T10:28:19;785.40;;;190.43;;
30966;SDS011;17649;51.836;8.330;2023-02-28T10:31:20;767.03;;;183.77;;
30966;SDS011;17649;51.836;8.330;2023-02-28T10:34:21;772.58;;;185.73;;
30966;SDS011;17649;51.836;8.330;2023-02-28T10:37:21;760.28;;;179.52;;
30966;SDS011;17649;51.836;8.330;2023-02-28T10:43:22;739.35;;;171.10;;
30966;SDS011;17649;51.836;8.330;2023-02-28T10:46:23;771.58;;;188.00;;
30966;SDS011;17649;51.836;8.330;2023-02-28T10:49:26;753.63;;;181.68;;
30966;SDS011;17649;51.836;8.330;2023-02-28T10:52:46;726.72;;;172.13;;
30966;SDS011;17649;51.836;8.330;2023-02-28T10:56:00;730.38;;;170.52;;
30966;SDS011;17649;51.836;8.330;2023-02-28T10:59:26;822.80;;;219.20;;
30966;SDS011;17649;51.836;8.330;2023-02-28T11:02:30;3.15;;;2.55;;
30966;SDS011;17649;51.836;8.330;2023-02-28T11:05:35;6.18;;;3.25;;
30966;SDS011;17649;51.836;8.330;2023-02-28T11:08:42;7.15;;;2.20;;
30966;SDS011;17649;51.836;8.330;2023-02-28T11:11:46;4.40;;;2.35;;
30966;SDS011;17649;51.836;8.330;2023-02-28T11:14:49;3.03;;;2.28;;
30966;SDS011;17649;51.836;8.330;2023-02-28T11:20:59;7.75;;;4.35;;
30966;SDS011;17649;51.836;8.330;2023-02-28T11:24:02;12.23;;;6.90;;
30966;SDS011;17649;51.836;8.330;2023-02-28T11:33:49;3.75;;;2.47;;
30966;SDS011;17649;51.836;8.330;2023-02-28T11:36:53;6.57;;;3.63;;
30966;SDS011;17649;51.836;8.330;2023-02-28T11:39:54;10.80;;;4.72;;
30966;SDS011;17649;51.836;8.330;2023-02-28T11:43:05;9.02;;;3.53;;
30966;SDS011;17649;51.836;8.330;2023-02-28T11:52:38;5.35;;;3.53;;
30966;SDS011;17649;51.836;8.330;2023-02-28T11:55:47;9.35;;;2.80;;
30966;SDS011;17649;51.836;8.330;2023-02-28T12:02:44;5.78;;;3.42;;
30966;SDS011;17649;51.836;8.330;2023-02-28T12:15:47;5.20;;;2.95;;
30966;SDS011;17649;51.836;8.330;2023-02-28T12:19:19;8.90;;;2.53;;
30966;SDS011;17649;51.836;8.330;2023-02-28T12:22:31;6.00;;;3.03;;
30966;SDS011;17649;51.836;8.330;2023-02-28T12:25:58;4.95;;;3.40;;
30966;SDS011;17649;51.836;8.330;2023-02-28T12:32:32;4.70;;;2.65;;
30966;SDS011;17649;51.836;8.330;2023-02-28T12:35:38;7.13;;;2.17;;
30966;SDS011;17649;51.836;8.330;2023-02-28T12:39:04;4.45;;;2.35;;
30966;SDS011;17649;51.836;8.330;2023-02-28T12:42:14;3.60;;;2.35;;
30966;SDS011;17649;51.836;8.330;2023-02-28T12:45:27;6.05;;;2.50;;
30966;SDS011;17649;51.836;8.330;2023-02-28T12:48:44;7.30;;;2.65;;
30966;SDS011;17649;51.836;8.330;2023-02-28T12:51:48;8.05;;;3.15;;
30966;SDS011;17649;51.836;8.330;2023-02-28T12:54:52;6.43;;;2.88;;
30966;SDS011;17649;51.836;8.330;2023-02-28T13:01:18;5.20;;;2.80;;
30966;SDS011;17649;51.836;8.330;2023-02-28T13:11:26;6.97;;;2.25;;
30966;SDS011;17649;51.836;8.330;2023-02-28T13:14:37;10.77;;;4.00;;
30966;SDS011;17649;51.836;8.330;2023-02-28T13:17:38;5.03;;;2.67;;
30966;SDS011;17649;51.836;8.330;2023-02-28T13:20:47;3.10;;;2.03;;
30966;SDS011;17649;51.836;8.330;2023-02-28T13:30:50;3.50;;;2.00;;
30966;SDS011;17649;51.836;8.330;2023-02-28T13:36:48;4.93;;;2.90;;
30966;SDS011;17649;51.836;8.330;2023-02-28T13:39:56;4.13;;;2.60;;
30966;SDS011;17649;51.836;8.330;2023-02-28T13:42:57;5.15;;;3.70;;
30966;SDS011;17649;51.836;8.330;2023-02-28T13:46:05;7.70;;;2.30;;
30966;SDS011;17649;51.836;8.330;2023-02-28T13:52:29;5.57;;;4.00;;
30966;SDS011;17649;51.836;8.330;2023-02-28T13:55:37;2.95;;;2.38;;
30966;SDS011;17649;51.836;8.330;2023-02-28T14:02:06;9.27;;;3.75;;
30966;SDS011;17649;51.836;8.330;2023-02-28T14:05:26;6.45;;;3.22;;
30966;SDS011;17649;51.836;8.330;2023-02-28T14:08:29;6.30;;;3.00;;
30966;SDS011;17649;51.836;8.330;2023-02-28T14:11:34;4.22;;;2.50;;
30966;SDS011;17649;51.836;8.330;2023-02-28T14:17:37;5.33;;;3.60;;
30966;SDS011;17649;51.836;8.330;2023-02-28T14:20:38;2.35;;;2.03;;
30966;SDS011;17649;51.836;8.330;2023-02-28T14:23:46;4.25;;;2.67;;
30966;SDS011;17649;51.836;8.330;2023-02-28T14:37:03;3.58;;;2.58;;
30966;SDS011;17649;51.836;8.330;2023-02-28T14:40:11;3.20;;;2.30;;
30966;SDS011;17649;51.836;8.330;2023-02-28T14:43:19;6.15;;;2.67;;
30966;SDS011;17649;51.836;8.330;2023-02-28T14:46:22;3.63;;;2.40;;
30966;SDS011;17649;51.836;8.330;2023-02-28T14:49:30;4.90;;;2.90;;
30966;SDS011;17649;51.836;8.330;2023-02-28T14:52:34;4.13;;;2.78;;
30966;SDS011;17649;51.836;8.330;2023-02-28T14:55:35;7.38;;;3.95;;
30966;SDS011;17649;51.836;8.330;2023-02-28T14:58:35;8.70;;;4.57;;
30966;SDS011;17649;51.836;8.330;2023-02-28T15:01:36;23.05;;;9.77;;
30966;SDS011;17649;51.836;8.330;2023-02-28T15:04:36;6.88;;;4.22;;
30966;SDS011;17649;51.836;8.330;2023-02-28T15:07:37;6.60;;;3.72;;
30966;SDS011;17649;51.836;8.330;2023-02-28T15:10:54;8.43;;;3.58;;
30966;SDS011;17649;51.836;8.330;2023-02-28T15:13:57;8.40;;;3.65;;
30966;SDS011;17649;51.836;8.330;2023-02-28T15:16:59;6.57;;;3.67;;
30966;SDS011;17649;51.836;8.330;2023-02-28T15:20:10;7.68;;;4.13;;
30966;SDS011;17649;51.836;8.330;2023-02-28T15:23:14;14.23;;;6.28;;
30966;SDS011;17649;51.836;8.330;2023-02-28T15:26:16;21.25;;;9.77;;
30966;SDS011;17649;51.836;8.330;2023-02-28T15:29:20;12.30;;;6.40;;
30966;SDS011;17649;51.836;8.330;2023-02-28T15:32:24;9.40;;;4.85;;
30966;SDS011;17649;51.836;8.330;2023-02-28T15:35:33;5.80;;;3.90;;
30966;SDS011;17649;51.836;8.330;2023-02-28T15:38:35;8.27;;;4.20;;
30966;SDS011;17649;51.836;8.330;2023-02-28T15:41:37;8.00;;;4.40;;
30966;SDS011;17649;51.836;8.330;2023-02-28T15:44:38;6.93;;;4.63;;
30966;SDS011;17649;51.836;8.330;2023-02-28T15:47:38;11.70;;;6.15;;
30966;SDS011;17649;51.836;8.330;2023-02-28T15:50:38;7.00;;;3.97;;
30966;SDS011;17649;51.836;8.330;2023-02-28T15:53:47;6.65;;;4.00;;
30966;SDS011;17649;51.836;8.330;2023-02-28T15:56:57;8.95;;;5.95;;
30966;SDS011;17649;51.836;8.330;2023-02-28T16:00:20;8.93;;;5.45;;
30966;SDS011;17649;51.836;8.330;2023-02-28T16:03:23;10.63;;;4.20;;
30966;SDS011;17649;51.836;8.330;2023-02-28T16:06:33;16.20;;;7.15;;
30966;SDS011;17649;51.836;8.330;2023-02-28T16:09:44;10.00;;;4.78;;
30966;SDS011;17649;51.836;8.330;2023-02-28T16:12:46;10.98;;;6.00;;
30966;SDS011;17649;51.836;8.330;2023-02-28T16:15:47;8.32;;;6.20;;
30966;SDS011;17649;51.836;8.330;2023-02-28T16:18:50;6.50;;;4.95;;
30966;SDS011;17649;51.836;8.330;2023-02-28T16:21:54;12.00;;;4.95;;
30966;SDS011;17649;51.836;8.330;2023-02-28T16:24:55;7.90;;;5.07;;
30966;SDS011;17649;51.836;8.330;2023-02-28T16:27:55;10.13;;;4.93;;
30966;SDS011;17649;51.836;8.330;2023-02-28T16:31:00;8.73;;;5.57;;
30966;SDS011;17649;51.836;8.330;2023-02-28T16:37:04;10.23;;;4.73;;
30966;SDS011;17649;51.836;8.330;2023-02-28T16:43:07;7.97;;;4.13;;
30966;SDS011;17649;51.836;8.330;2023-02-28T16:49:44;9.10;;;5.40;;
30966;SDS011;17649;51.836;8.330;2023-02-28T16:52:45;10.20;;;5.60;;
30966;SDS011;17649;51.836;8.330;2023-02-28T16:56:02;8.93;;;5.47;;
30966;SDS011;17649;51.836;8.330;2023-02-28T16:59:05;8.15;;;6.00;;
30966;SDS011;17649;51.836;8.330;2023-02-28T17:02:10;9.40;;;6.68;;
30966;SDS011;17649;51.836;8.330;2023-02-28T17:05:13;16.92;;;6.32;;
30966;SDS011;17649;51.836;8.330;2023-02-28T17:08:15;10.13;;;6.55;;
30966;SDS011;17649;51.836;8.330;2023-02-28T17:11:16;12.15;;;6.15;;
30966;SDS011;17649;51.836;8.330;2023-02-28T17:14:17;8.60;;;5.23;;
30966;SDS011;17649;51.836;8.330;2023-02-28T17:17:19;10.30;;;5.13;;
30966;SDS011;17649;51.836;8.330;2023-02-28T17:20:21;7.55;;;5.47;;
30966;SDS011;17649;51.836;8.330;2023-02-28T17:23:23;8.43;;;5.85;;
30966;SDS011;17649;51.836;8.330;2023-02-28T17:26:24;7.78;;;5.07;;
30966;SDS011;17649;51.836;8.330;2023-02-28T17:29:25;6.75;;;4.05;;
30966;SDS011;17649;51.836;8.330;2023-02-28T17:32:26;13.93;;;5.68;;
30966;SDS011;17649;51.836;8.330;2023-02-28T17:35:27;14.03;;;6.77;;
30966;SDS011;17649;51.836;8.330;2023-02-28T17:38:28;8.30;;;5.25;;
30966;SDS011;17649;51.836;8.330;2023-02-28T17:41:29;8.23;;;4.95;;
30966;SDS011;17649;51.836;8.330;2023-02-28T17:44:30;10.40;;;6.17;;
30966;SDS011;17649;51.836;8.330;2023-02-28T17:47:30;9.88;;;5.93;;
30966;SDS011;17649;51.836;8.330;2023-02-28T17:50:31;9.70;;;4.95;;
30966;SDS011;17649;51.836;8.330;2023-02-28T17:53:31;10.93;;;6.45;;
30966;SDS011;17649;51.836;8.330;2023-02-28T17:56:32;9.80;;;6.80;;
30966;SDS011;17649;51.836;8.330;2023-02-28T17:59:32;8.00;;;5.95;;
30966;SDS011;17649;51.836;8.330;2023-02-28T18:02:35;10.27;;;5.90;;
30966;SDS011;17649;51.836;8.330;2023-02-28T18:05:35;9.75;;;6.65;;
30966;SDS011;17649;51.836;8.330;2023-02-28T18:08:36;10.88;;;6.57;;
30966;SDS011;17649;51.836;8.330;2023-02-28T18:11:36;13.63;;;6.82;;
30966;SDS011;17649;51.836;8.330;2023-02-28T18:14:47;11.30;;;6.90;;
30966;SDS011;17649;51.836;8.330;2023-02-28T18:17:48;10.30;;;6.88;;
30966;SDS011;17649;51.836;8.330;2023-02-28T18:20:49;12.32;;;6.85;;
30966;SDS011;17649;51.836;8.330;2023-02-28T18:23:49;10.23;;;6.80;;
30966;SDS011;17649;51.836;8.330;2023-02-28T18:26:52;10.98;;;7.38;;
30966;SDS011;17649;51.836;8.330;2023-02-28T18:29:52;16.80;;;8.25;;
30966;SDS011;17649;51.836;8.330;2023-02-28T18:32:52;12.38;;;7.22;;
30966;SDS011;17649;51.836;8.330;2023-02-28T18:35:56;12.35;;;7.40;;
30966;SDS011;17649;51.836;8.330;2023-02-28T18:38:56;13.75;;;7.88;;
30966;SDS011;17649;51.836;8.330;2023-02-28T18:41:57;15.50;;;8.15;;
30966;SDS011;17649;51.836;8.330;2023-02-28T18:44:58;10.90;;;7.95;;
30966;SDS011;17649;51.836;8.330;2023-02-28T18:47:58;19.25;;;8.32;;
30966;SDS011;17649;51.836;8.330;2023-02-28T18:51:04;13.45;;;8.50;;
30966;SDS011;17649;51.836;8.330;2023-02-28T18:54:15;15.73;;;8.68;;
30966;SDS011;17649;51.836;8.330;2023-02-28T18:57:16;15.05;;;8.75;;
30966;SDS011;17649;51.836;8.330;2023-02-28T19:00:16;14.52;;;8.27;;
30966;SDS011;17649;51.836;8.330;2023-02-28T19:06:19;11.05;;;7.45;;
30966;SDS011;17649;51.836;8.330;2023-02-28T19:09:20;14.63;;;7.57;;
30966;SDS011;17649;51.836;8.330;2023-02-28T19:12:20;14.32;;;8.75;;
30966;SDS011;17649;51.836;8.330;2023-02-28T19:15:23;11.82;;;8.07;;
30966;SDS011;17649;51.836;8.330;2023-02-28T19:18:30;12.88;;;8.02;;
30966;SDS011;17649;51.836;8.330;2023-02-28T19:21:31;14.73;;;7.68;;
30966;SDS011;17649;51.836;8.330;2023-02-28T19:24:32;11.90;;;8.07;;
30966;SDS011;17649;51.836;8.330;2023-02-28T19:27:32;11.88;;;6.95;;
30966;SDS011;17649;51.836;8.330;2023-02-28T19:30:33;15.38;;;7.60;;
30966;SDS011;17649;51.836;8.330;2023-02-28T19:33:34;11.35;;;7.70;;
30966;SDS011;17649;51.836;8.330;2023-02-28T19:36:38;12.30;;;7.63;;
30966;SDS011;17649;51.836;8.330;2023-02-28T19:39:38;15.70;;;8.02;;
30966;SDS011;17649;51.836;8.330;2023-02-28T19:42:42;13.38;;;7.88;;
30966;SDS011;17649;51.836;8.330;2023-02-28T19:45:43;12.90;;;8.00;;
30966;SDS011;17649;51.836;8.330;2023-02-28T19:48:43;13.05;;;7.85;;
30966;SDS011;17649;51.836;8.330;2023-02-28T19:51:44;15.57;;;7.25;;
30966;SDS011;17649;51.836;8.330;2023-02-28T19:54:45;11.45;;;6.50;;
30966;SDS011;17649;51.836;8.330;2023-02-28T19:57:45;12.73;;;7.53;;
30966;SDS011;17649;51.836;8.330;2023-02-28T20:00:46;11.52;;;7.38;;
30966;SDS011;17649;51.836;8.330;2023-02-28T20:03:50;12.68;;;7.88;;
30966;SDS011;17649;51.836;8.330;2023-02-28T20:06:51;12.80;;;7.88;;
30966;SDS011;17649;51.836;8.330;2023-02-28T20:09:52;15.40;;;9.07;;
30966;SDS011;17649;51.836;8.330;2023-02-28T20:12:52;11.68;;;7.78;;
30966;SDS011;17649;51.836;8.330;2023-02-28T20:15:53;10.85;;;7.00;;
30966;SDS011;17649;51.836;8.330;2023-02-28T20:18:53;15.25;;;7.95;;
30966;SDS011;17649;51.836;8.330;2023-02-28T20:21:53;16.67;;;7.22;;